Time;durP1;ratioP1;P1;durP2;ratioP2;P2;SDS_P1;SDS_P2;PMS_P1;PMS_P2;Temp;Humidity;BMP_temperature;BMP_pressure;BME280_temperature;BME280_humidity;BME280_pressure;Samples;Min_cycle;Max_cycle;Signal;HPM_P1;HPM_P2
2023/05/18 04:42:06;;;;;;;17.42;2.05;;;15.10;63.70;;;;;;4779396;29;20078;-64
2023/05/18 04:44:37;;;;;;;15.43;3.42;;;15.20;63.50;;;;;;4793321;29;20059;-65
2023/05/18 04:47:03;;;;;;;19.33;3.42;;;15.30;63.70;;;;;;4800933;29;20055;-65
2023/05/18 04:49:31;;;;;;;14.60;3.05;;;15.40;63.80;;;;;;4790196;30;20375;-65
2023/05/18 04:51:58;;;;;;;18.95;2.47;;;15.40;63.90;;;;;;4787317;29;20497;-68
2023/05/18 04:54:31;;;;;;;18.00;2.83;;;15.40;64.10;;;;;;4789199;29;20399;-66
2023/05/18 04:56:58;;;;;;;16.63;2.63;;;15.40;64.20;;;;;;4788328;30;20051;-66
2023/05/18 04:59:25;;;;;;;21.80;2.78;;;15.50;64.30;;;;;;4788813;29;20051;-65
2023/05/18 05:01:54;;;;;;;17.55;3.15;;;15.50;64.60;;;;;;4792853;30;20063;-65
2023/05/18 05:04:20;;;;;;;27.35;3.25;;;15.50;64.70;;;;;;4791129;30;20059;-65
2023/05/18 05:06:46;;;;;;;17.05;3.05;;;15.50;64.90;;;;;;4792797;30;20058;-65
2023/05/18 05:09:13;;;;;;;24.17;3.33;;;15.50;65.10;;;;;;4791633;29;20055;-65
2023/05/18 05:11:40;;;;;;;21.05;2.88;;;15.50;65.10;;;;;;4793400;29;20054;-65
2023/05/18 05:14:06;;;;;;;15.35;2.33;;;15.50;65.20;;;;;;4792230;30;20070;-65
2023/05/18 05:16:33;;;;;;;13.90;2.25;;;15.50;65.20;;;;;;4784901;30;20486;-65
2023/05/18 05:18:59;;;;;;;13.38;2.13;;;15.60;65.20;;;;;;4792176;30;20055;-65
2023/05/18 05:21:25;;;;;;;15.25;2.10;;;15.60;65.30;;;;;;4792022;30;20366;-64
2023/05/18 05:23:51;;;;;;;9.65;2.42;;;15.60;65.30;;;;;;4792174;30;20083;-64
2023/05/18 05:26:17;;;;;;;23.05;3.17;;;15.60;65.30;;;;;;4796443;29;20482;-64
2023/05/18 05:28:43;;;;;;;18.10;2.38;;;15.70;64.80;;;;;;4795061;29;20051;-66
2023/05/18 05:31:09;;;;;;;16.58;2.88;;;15.70;64.60;;;;;;4792871;30;20062;-65
2023/05/18 05:33:35;;;;;;;19.35;3.10;;;15.90;64.70;;;;;;4785983;30;20112;-65
2023/05/18 05:36:03;;;;;;;20.90;3.47;;;16.00;64.60;;;;;;4791571;30;20379;-66
2023/05/18 05:38:30;;;;;;;19.45;3.55;;;16.10;64.40;;;;;;4791058;29;20133;-65
2023/05/18 05:40:56;;;;;;;21.05;2.80;;;16.20;64.20;;;;;;4791303;29;20441;-66
2023/05/18 05:43:22;;;;;;;28.15;3.72;;;16.20;64.30;;;;;;4791900;30;20574;-65
2023/05/18 05:45:48;;;;;;;25.45;3.15;;;16.30;64.40;;;;;;4790266;29;20048;-66
2023/05/18 05:48:14;;;;;;;24.25;3.60;;;16.40;64.30;;;;;;4783389;30;20440;-66
2023/05/18 05:50:39;;;;;;;17.73;2.83;;;16.40;64.20;;;;;;4789056;30;20051;-65
2023/05/18 05:53:05;;;;;;;24.50;3.83;;;16.50;64.00;;;;;;4792342;30;20043;-65
2023/05/18 05:55:31;;;;;;;38.92;4.47;;;16.50;64.00;;;;;;4792255;29;20074;-66
2023/05/18 05:57:57;;;;;;;28.55;5.20;;;16.50;64.00;;;;;;4792323;30;20391;-67
2023/05/18 06:00:23;;;;;;;28.77;4.05;;;16.50;63.90;;;;;;4790646;29;20338;-67
2023/05/18 06:02:49;;;;;;;28.83;3.90;;;16.50;62.70;;;;;;4805357;29;20050;-66
2023/05/18 06:05:14;;;;;;;25.83;3.35;;;16.50;63.20;;;;;;4810108;29;20051;-66
2023/05/18 06:07:40;;;;;;;31.95;3.92;;;16.40;63.40;;;;;;4800389;29;20058;-66
2023/05/18 06:10:07;;;;;;;11.43;2.38;;;16.40;61.70;;;;;;4798820;29;20475;-66
2023/05/18 06:12:33;;;;;;;20.65;3.65;;;16.30;59.90;;;;;;4791158;29;20134;-65
2023/05/18 06:14:58;;;;;;;17.48;2.97;;;16.20;58.90;;;;;;4791734;30;20081;-67
2023/05/18 06:17:25;;;;;;;12.35;2.22;;;16.10;57.60;;;;;;4791033;30;20047;-67
2023/05/18 06:19:51;;;;;;;22.58;3.13;;;15.80;56.40;;;;;;4791376;29;20051;-67
2023/05/18 06:22:17;;;;;;;17.20;2.75;;;15.60;57.70;;;;;;4791628;29;20524;-67
2023/05/18 06:24:43;;;;;;;14.43;2.28;;;15.60;59.00;;;;;;4791869;30;20051;-68
2023/05/18 06:27:09;;;;;;;17.67;2.42;;;15.60;59.40;;;;;;4792206;29;20052;-68
2023/05/18 06:29:34;;;;;;;15.07;2.70;;;15.60;59.70;;;;;;4775520;30;20148;-68
2023/05/18 06:32:00;;;;;;;17.00;2.67;;;15.60;59.80;;;;;;4792060;30;20134;-68
2023/05/18 06:34:26;;;;;;;14.77;2.25;;;15.60;60.00;;;;;;4791403;29;20374;-67
2023/05/18 06:36:52;;;;;;;16.02;2.60;;;15.60;60.00;;;;;;4791098;30;20120;-67
2023/05/18 06:39:18;;;;;;;15.73;2.15;;;15.60;60.20;;;;;;4791516;29;20051;-67
2023/05/18 06:41:46;;;;;;;15.30;2.75;;;15.60;60.30;;;;;;4791297;30;20143;-68
2023/05/18 06:44:12;;;;;;;13.38;2.53;;;15.60;60.40;;;;;;4791740;29;20058;-68
2023/05/18 06:46:38;;;;;;;13.43;2.03;;;15.60;60.70;;;;;;4791218;30;20344;-66
2023/05/18 06:49:04;;;;;;;17.85;2.63;;;15.60;58.20;;;;;;4791381;30;20047;-66
2023/05/18 06:51:30;;;;;;;9.95;1.77;;;15.50;56.50;;;;;;4791228;29;20370;-66
2023/05/18 06:53:56;;;;;;;12.02;1.90;;;15.50;54.90;;;;;;4791201;30;20059;-65
2023/05/18 06:56:22;;;;;;;8.90;1.85;;;15.40;55.50;;;;;;4791505;30;20047;-64
2023/05/18 06:58:48;;;;;;;10.57;2.38;;;15.40;55.50;;;;;;4789544;30;20050;-64
2023/05/18 07:01:16;;;;;;;29.48;4.35;;;15.30;55.80;;;;;;4791299;30;20147;-64
2023/05/18 07:03:42;;;;;;;24.10;2.85;;;15.20;56.40;;;;;;4791453;30;20067;-64
2023/05/18 07:06:08;;;;;;;19.63;2.60;;;15.20;57.20;;;;;;4790967;29;20050;-64
2023/05/18 07:08:35;;;;;;;14.18;3.08;;;15.20;57.20;;;;;;4789589;30;20185;-64
2023/05/18 07:11:02;;;;;;;23.50;3.72;;;15.10;57.20;;;;;;4790582;29;20053;-64
2023/05/18 07:13:28;;;;;;;19.50;3.78;;;15.00;57.40;;;;;;4790507;30;20051;-64
2023/05/18 07:15:53;;;;;;;18.98;2.92;;;15.00;57.90;;;;;;4790721;30;20376;-64
2023/05/18 07:18:19;;;;;;;11.20;2.45;;;15.00;57.90;;;;;;4785530;30;20044;-63
2023/05/18 07:20:45;;;;;;;18.25;2.83;;;15.00;57.90;;;;;;4796274;29;20139;-64
2023/05/18 07:23:11;;;;;;;16.33;2.75;;;15.00;57.90;;;;;;4806265;29;20048;-64
2023/05/18 07:25:36;;;;;;;13.63;3.03;;;14.90;57.90;;;;;;4790621;29;20097;-63
2023/05/18 07:28:02;;;;;;;10.32;1.85;;;14.90;57.90;;;;;;4790455;30;20051;-64
2023/05/18 07:30:28;;;;;;;12.50;2.15;;;14.90;57.90;;;;;;4790595;29;20140;-64
2023/05/18 07:32:55;;;;;;;6.97;1.80;;;14.80;58.00;;;;;;4790202;30;20047;-64
2023/05/18 07:35:21;;;;;;;9.27;1.88;;;14.80;58.10;;;;;;4790550;30;20055;-63
2023/05/18 07:37:48;;;;;;;8.38;1.58;;;14.80;58.10;;;;;;4790671;30;20142;-63
2023/05/18 07:40:14;;;;;;;8.50;1.35;;;14.80;58.10;;;;;;4790577;30;20063;-64
2023/05/18 07:42:40;;;;;;;7.60;1.58;;;14.80;58.20;;;;;;4790048;30;20482;-64
2023/05/18 07:45:07;;;;;;;7.57;1.80;;;14.80;58.30;;;;;;4790520;30;20170;-64
2023/05/18 07:47:33;;;;;;;10.20;2.33;;;14.80;58.50;;;;;;4789685;29;20136;-65
2023/05/18 07:49:59;;;;;;;11.98;2.08;;;14.80;59.20;;;;;;4790528;30;20109;-65
2023/05/18 07:52:25;;;;;;;9.77;1.80;;;14.80;59.10;;;;;;4804969;29;20054;-65
2023/05/18 07:54:53;;;;;;;7.28;2.00;;;14.90;58.60;;;;;;4790523;29;20055;-64
2023/05/18 07:57:20;;;;;;;7.57;1.67;;;14.90;57.80;;;;;;4790297;29;20538;-64
2023/05/18 07:59:45;;;;;;;7.40;1.65;;;15.00;58.10;;;;;;4790696;30;20055;-64
2023/05/18 08:02:11;;;;;;;6.57;1.55;;;15.00;58.10;;;;;;4789817;30;20104;-64
2023/05/18 08:04:37;;;;;;;6.90;1.65;;;15.00;58.20;;;;;;4790426;30;20051;-64
2023/05/18 08:07:03;;;;;;;6.70;1.25;;;14.90;58.30;;;;;;4789938;29;20051;-65
2023/05/18 08:09:29;;;;;;;5.68;1.23;;;14.90;58.20;;;;;;4790390;30;20055;-64
2023/05/18 08:11:56;;;;;;;6.20;1.30;;;14.90;58.30;;;;;;4789765;30;20047;-64
2023/05/18 08:14:22;;;;;;;6.13;1.70;;;14.90;58.10;;;;;;4804141;29;20059;-64
2023/05/18 08:16:48;;;;;;;6.10;1.60;;;14.90;58.30;;;;;;4790124;30;20047;-64
2023/05/18 08:19:14;;;;;;;6.07;1.40;;;14.90;58.50;;;;;;4790291;30;20112;-64
2023/05/18 08:21:39;;;;;;;5.72;1.20;;;14.90;58.60;;;;;;4789521;30;20055;-64
2023/05/18 08:24:06;;;;;;;4.22;1.83;;;15.00;58.90;;;;;;4790247;30;20128;-64
2023/05/18 08:26:32;;;;;;;6.80;1.30;;;14.90;58.80;;;;;;4789926;30;20066;-64
2023/05/18 08:28:58;;;;;;;4.45;1.60;;;15.00;58.80;;;;;;4804235;29;20051;-64
2023/05/18 08:31:23;;;;;;;8.25;1.65;;;15.00;58.80;;;;;;4789773;30;20047;-64
2023/05/18 08:33:49;;;;;;;4.88;1.40;;;15.00;58.80;;;;;;4789870;29;20047;-64
2023/05/18 08:36:16;;;;;;;4.60;1.48;;;15.00;58.80;;;;;;4792754;29;20047;-64
2023/05/18 08:38:42;;;;;;;5.65;1.10;;;15.00;58.70;;;;;;4791166;30;20137;-64
2023/05/18 08:41:16;;;;;;;5.03;1.40;;;15.00;58.60;;;;;;4793485;30;20138;-64
2023/05/18 08:43:47;;;;;;;4.47;1.50;;;15.00;58.80;;;;;;4777682;30;20063;-64
2023/05/18 08:46:34;;;;;;;5.40;1.48;;;15.00;58.70;;;;;;4793222;29;20433;-64
2023/05/18 08:49:01;;;;;;;4.60;1.15;;;15.00;59.10;;;;;;4777587;30;20050;-64
2023/05/18 08:51:32;;;;;;;5.35;1.23;;;15.00;59.00;;;;;;4793879;30;20055;-63
2023/05/18 08:53:59;;;;;;;3.13;0.98;;;15.00;59.00;;;;;;4792929;29;20464;-64
2023/05/18 08:56:25;;;;;;;4.13;1.20;;;15.00;58.90;;;;;;4793231;30;20051;-65
2023/05/18 08:58:55;;;;;;;15.02;2.47;;;15.00;58.60;;;;;;4793083;30;20047;-63
2023/05/18 09:01:26;;;;;;;14.75;2.95;;;15.10;59.10;;;;;;4777479;30;20066;-64
2023/05/18 09:03:52;;;;;;;10.90;2.53;;;15.10;59.00;;;;;;4792934;30;20062;-64
2023/05/18 09:06:19;;;;;;;16.85;3.03;;;15.10;59.10;;;;;;4792685;29;20120;-66
2023/05/18 09:08:47;;;;;;;17.38;2.40;;;15.20;59.60;;;;;;4792669;30;20055;-66
2023/05/18 09:11:13;;;;;;;9.43;2.10;;;15.20;59.20;;;;;;4793017;30;20439;-68
2023/05/18 09:13:39;;;;;;;13.23;2.40;;;15.20;59.10;;;;;;4787906;30;20120;-66
2023/05/18 09:16:06;;;;;;;20.80;2.63;;;15.20;59.20;;;;;;4809522;29;20054;-66
2023/05/18 09:18:32;;;;;;;13.73;3.10;;;15.30;59.80;;;;;;4810679;29;20080;-66
2023/05/18 09:20:58;;;;;;;13.50;2.55;;;15.20;59.10;;;;;;4810877;29;20529;-66
2023/05/18 09:23:24;;;;;;;16.45;2.28;;;15.20;58.00;;;;;;4810883;29;20050;-66
2023/05/18 09:25:52;;;;;;;10.43;2.20;;;15.20;57.10;;;;;;4810756;29;20069;-66
2023/05/18 09:28:30;;;;;;;8.57;2.03;;;15.20;56.70;;;;;;4793156;29;20047;-66
2023/05/18 09:30:56;;;;;;;10.63;2.38;;;15.20;57.70;;;;;;4786903;30;20047;-66
2023/05/18 09:33:22;;;;;;;12.25;2.30;;;15.20;58.30;;;;;;4791914;30;20062;-66
2023/05/18 09:35:50;;;;;;;12.85;2.35;;;15.30;58.30;;;;;;4789331;29;20107;-66
2023/05/18 09:38:22;;;;;;;15.32;2.35;;;15.30;58.50;;;;;;4792153;29;20418;-67
2023/05/18 09:40:49;;;;;;;20.38;3.65;;;15.30;58.30;;;;;;4791622;29;20067;-64
2023/05/18 09:43:17;;;;;;;15.23;2.78;;;15.30;58.40;;;;;;4776021;30;20058;-65
2023/05/18 09:45:46;;;;;;;17.25;2.25;;;15.30;58.40;;;;;;4775850;29;20074;-65
2023/05/18 09:48:15;;;;;;;14.98;2.13;;;15.40;58.40;;;;;;4790806;30;20055;-66
2023/05/18 09:50:45;;;;;;;13.70;2.20;;;15.40;58.50;;;;;;4791932;30;20065;-65
2023/05/18 09:53:12;;;;;;;18.05;2.83;;;15.40;58.60;;;;;;4789784;30;20051;-66
2023/05/18 09:55:47;;;;;;;11.50;2.28;;;15.40;58.80;;;;;;4791715;29;20116;-65
2023/05/18 09:58:13;;;;;;;11.13;2.15;;;15.40;58.70;;;;;;4773955;30;20047;-65
2023/05/18 10:00:50;;;;;;;11.48;1.88;;;15.40;58.30;;;;;;4791504;29;20047;-66
2023/05/18 10:03:22;;;;;;;10.00;2.00;;;15.40;58.10;;;;;;4790284;29;20057;-66
2023/05/18 10:05:48;;;;;;;6.60;1.90;;;15.40;57.70;;;;;;4791646;29;20050;-66
2023/05/18 10:08:15;;;;;;;8.30;1.80;;;15.40;57.60;;;;;;4791107;30;20379;-66
2023/05/18 10:10:45;;;;;;;8.57;2.08;;;15.40;57.30;;;;;;4791250;30;20055;-65
2023/05/18 10:13:19;;;;;;;7.55;2.00;;;15.40;57.10;;;;;;4789177;30;20070;-65
2023/05/18 10:15:51;;;;;;;7.28;1.80;;;15.40;57.70;;;;;;4791291;30;20043;-65
2023/05/18 10:18:29;;;;;;;10.38;2.40;;;15.40;57.60;;;;;;4791601;30;20047;-65
2023/05/18 10:21:00;;;;;;;13.48;2.08;;;15.40;57.90;;;;;;4789229;30;20055;-65
2023/05/18 10:23:29;;;;;;;6.30;2.08;;;15.40;58.20;;;;;;4791255;30;20116;-66
2023/05/18 10:25:56;;;;;;;16.92;3.28;;;15.40;58.10;;;;;;4789236;29;20059;-66
2023/05/18 10:28:34;;;;;;;12.15;2.42;;;15.50;58.50;;;;;;4789504;29;20375;-64
2023/05/18 10:31:00;;;;;;;12.98;2.35;;;15.50;58.70;;;;;;4771967;30;20055;-67
2023/05/18 10:33:27;;;;;;;15.43;2.85;;;15.50;58.90;;;;;;4791117;30;20043;-67
2023/05/18 10:35:54;;;;;;;17.70;3.40;;;15.50;59.00;;;;;;4803563;29;20051;-67
2023/05/18 10:38:24;;;;;;;13.85;2.50;;;15.50;59.00;;;;;;4791011;30;20459;-67
2023/05/18 10:40:56;;;;;;;6.93;1.70;;;15.50;59.10;;;;;;4790837;30;20078;-67
2023/05/18 10:43:26;;;;;;;9.40;2.05;;;15.50;59.30;;;;;;4791018;30;20112;-67
2023/05/18 10:45:59;;;;;;;11.52;2.10;;;15.50;59.40;;;;;;4790881;29;20070;-67
2023/05/18 10:48:26;;;;;;;;;;;15.60;59.60;;;;;;4791241;30;20104;-67
2023/05/18 10:50:56;;;;;;;9.60;1.77;;;15.60;59.70;;;;;;4790889;30;20311;-67
2023/05/18 10:53:28;;;;;;;8.70;2.45;;;15.60;59.70;;;;;;4790764;30;20058;-67
2023/05/18 10:55:54;;;;;;;8.38;1.92;;;15.60;59.80;;;;;;4790700;30;20094;-67
2023/05/18 10:58:22;;;;;;;9.45;2.28;;;15.60;59.80;;;;;;4774446;29;20070;-66
2023/05/18 11:00:57;;;;;;;8.10;1.40;;;15.60;59.90;;;;;;4790662;30;20048;-67
2023/05/18 11:03:25;;;;;;;6.97;2.00;;;15.60;60.00;;;;;;4789017;30;20391;-67
2023/05/18 11:06:07;;;;;;;8.77;1.58;;;15.60;60.10;;;;;;4790553;30;20053;-67
2023/05/18 11:08:34;;;;;;;7.22;2.25;;;15.60;60.20;;;;;;4790404;30;20051;-67
2023/05/18 11:11:06;;;;;;;10.75;2.17;;;15.60;60.30;;;;;;4790310;30;20051;-67
2023/05/18 11:13:33;;;;;;;16.77;2.30;;;15.60;60.40;;;;;;4790335;30;20058;-67
2023/05/18 11:15:59;;;;;;;6.60;1.95;;;15.60;60.40;;;;;;4790292;29;20051;-67
2023/05/18 11:18:42;;;;;;;7.93;1.40;;;15.60;60.50;;;;;;4790060;29;20062;-67
2023/05/18 11:21:23;;;;;;;8.60;1.80;;;15.60;60.50;;;;;;4789352;29;20051;-67
2023/05/18 11:24:16;;;;;;;4.93;1.45;;;15.60;60.70;;;;;;4790145;30;20137;-68
2023/05/18 11:26:44;;;;;;;4.97;1.40;;;15.60;60.70;;;;;;4790424;30;20408;-68
2023/05/18 11:29:40;;;;;;;5.90;1.80;;;15.60;60.70;;;;;;4790329;30;20055;-68
2023/05/18 11:32:26;;;;;;;6.80;1.77;;;15.60;60.80;;;;;;4778299;30;20151;-68
2023/05/18 11:34:53;;;;;;;12.95;1.50;;;15.60;60.80;;;;;;4789231;30;20066;-68
2023/05/18 11:37:37;;;;;;;4.93;1.20;;;15.60;60.90;;;;;;4790069;30;20467;-68
2023/05/18 11:40:08;;;;;;;;;;;15.60;61.00;;;;;;4788740;30;20047;-65
2023/05/18 11:42:34;;;;;;;11.88;2.03;;;15.60;61.10;;;;;;4790444;29;19994;-66
2023/05/18 11:45:10;;;;;;;11.90;2.28;;;15.60;60.90;;;;;;4788490;30;20051;-66
2023/05/18 11:47:38;;;;;;;17.02;3.50;;;15.60;60.80;;;;;;4779228;30;20482;-66
2023/05/18 11:50:09;;;;;;;9.40;2.47;;;15.60;60.90;;;;;;4790393;30;20058;-65
2023/05/18 11:52:46;;;;;;;18.90;3.15;;;15.60;60.80;;;;;;4790228;29;20051;-66
2023/05/18 11:55:15;;;;;;;23.05;3.85;;;15.70;61.10;;;;;;4790797;29;20051;-67
2023/05/18 11:57:44;;;;;;;25.60;3.55;;;15.70;61.20;;;;;;4790672;30;20117;-67
2023/05/18 12:00:10;;;;;;;41.50;5.35;;;15.70;61.30;;;;;;4789695;30;20051;-67
2023/05/18 12:02:37;;;;;;;16.50;3.47;;;15.70;61.50;;;;;;4776959;30;20054;-67
2023/05/18 12:05:08;;;;;;;27.35;3.90;;;15.80;61.50;;;;;;4789769;30;20126;-65
2023/05/18 12:07:35;;;;;;;28.73;3.95;;;15.80;61.70;;;;;;4775888;30;20396;-67
2023/05/18 12:10:10;;;;;;;30.58;4.63;;;15.80;61.70;;;;;;4771616;30;20356;-67
2023/05/18 12:12:36;;;;;;;25.38;4.07;;;15.80;61.80;;;;;;4772231;30;20119;-67
2023/05/18 12:15:07;;;;;;;25.73;4.20;;;15.80;61.90;;;;;;4788008;30;20070;-67
2023/05/18 12:17:46;;;;;;;29.95;4.57;;;15.80;62.20;;;;;;4789237;30;20122;-67
2023/05/18 12:20:16;;;;;;;22.55;3.58;;;15.80;62.30;;;;;;4789867;30;20054;-67
2023/05/18 12:22:51;;;;;;;20.33;3.75;;;15.80;62.30;;;;;;4789969;30;20086;-67
2023/05/18 12:25:18;;;;;;;24.65;3.10;;;15.80;62.30;;;;;;4790238;29;20059;-67
2023/05/18 12:27:48;;;;;;;15.38;3.40;;;15.70;62.30;;;;;;4790143;30;20097;-68
2023/05/18 12:30:33;;;;;;;16.30;2.88;;;15.70;62.30;;;;;;4790230;30;20043;-67
2023/05/18 12:33:01;;;;;;;17.48;3.42;;;15.70;62.50;;;;;;4790154;30;20055;-67
2023/05/18 12:35:28;;;;;;;14.52;2.97;;;15.70;62.50;;;;;;4790160;30;20063;-67
2023/05/18 12:37:58;;;;;;;19.45;3.33;;;15.70;62.60;;;;;;4789931;30;20079;-67
2023/05/18 12:40:25;;;;;;;12.85;2.88;;;15.70;62.60;;;;;;4789958;30;20059;-68
2023/05/18 12:42:54;;;;;;;10.80;2.63;;;15.70;62.70;;;;;;4789879;30;20060;-67
2023/05/18 12:45:30;;;;;;;16.30;2.60;;;15.70;62.70;;;;;;4789683;30;20140;-67
2023/05/18 12:48:03;;;;;;;12.85;2.17;;;15.70;62.80;;;;;;4789889;30;20062;-67
2023/05/18 12:50:28;;;;;;;12.10;2.42;;;15.70;62.80;;;;;;4789759;30;20047;-67
2023/05/18 12:52:57;;;;;;;10.45;2.47;;;15.70;62.80;;;;;;4789802;30;20531;-67
2023/05/18 12:55:33;;;;;;;8.80;2.13;;;15.70;62.90;;;;;;4773828;30;20059;-67
2023/05/18 12:58:00;;;;;;;8.73;2.00;;;15.70;62.90;;;;;;4789533;30;20086;-67
2023/05/18 13:00:26;;;;;;;7.93;2.20;;;15.70;62.80;;;;;;4789800;30;20066;-67
2023/05/18 13:02:52;;;;;;;10.68;2.50;;;15.70;63.50;;;;;;4789830;30;20055;-67
2023/05/18 13:05:23;;;;;;;10.43;1.95;;;15.70;62.90;;;;;;4789444;30;20055;-68
2023/05/18 13:07:49;;;;;;;8.50;2.17;;;15.70;62.90;;;;;;4789167;30;20066;-67
2023/05/18 13:10:18;;;;;;;9.63;1.75;;;15.80;63.00;;;;;;4789596;30;20043;-67
2023/05/18 13:12:51;;;;;;;8.40;2.38;;;15.70;62.90;;;;;;4789536;30;20362;-67
2023/05/18 13:15:21;;;;;;;8.27;1.67;;;15.80;63.00;;;;;;4789672;30;20486;-67
2023/05/18 13:17:58;;;;;;;9.25;1.77;;;15.70;62.90;;;;;;4789610;30;20059;-67
2023/05/18 13:20:53;;;;;;;8.35;2.05;;;15.80;63.00;;;;;;4789487;29;20062;-67
2023/05/18 13:23:23;;;;;;;5.28;2.05;;;15.80;63.00;;;;;;4792814;30;20067;-67
2023/05/18 13:25:49;;;;;;;10.38;2.13;;;15.80;63.10;;;;;;4793143;30;20132;-67
2023/05/18 13:28:17;;;;;;;5.75;1.60;;;15.80;63.10;;;;;;4792999;30;20092;-68
2023/05/18 13:30:44;;;;;;;8.35;2.15;;;15.80;63.10;;;;;;4792258;30;20490;-67
2023/05/18 13:33:11;;;;;;;7.90;1.80;;;15.80;63.20;;;;;;4793053;30;20154;-67
2023/05/18 13:35:40;;;;;;;6.78;1.88;;;15.80;63.10;;;;;;4792695;29;20061;-67
2023/05/18 13:38:08;;;;;;;9.40;1.55;;;15.80;63.20;;;;;;4776738;30;20055;-67
2023/05/18 13:40:34;;;;;;;8.43;2.28;;;15.80;63.20;;;;;;4792763;30;20135;-67
2023/05/18 13:43:00;;;;;;;5.88;1.88;;;15.80;63.20;;;;;;4792678;29;20134;-68
2023/05/18 13:45:26;;;;;;;3.85;1.20;;;15.80;63.30;;;;;;4792376;30;20055;-67
2023/05/18 13:47:52;;;;;;;6.95;1.85;;;15.80;63.30;;;;;;4793108;30;20047;-67
2023/05/18 13:50:19;;;;;;;7.30;1.42;;;15.80;63.30;;;;;;4792213;30;20460;-67
2023/05/18 13:52:46;;;;;;;5.03;1.40;;;15.80;63.30;;;;;;4792954;29;20066;-67
2023/05/18 13:55:12;;;;;;;6.93;1.90;;;15.80;63.30;;;;;;4793017;30;20055;-67
2023/05/18 13:57:38;;;;;;;5.13;1.63;;;15.80;63.30;;;;;;4792348;29;20051;-68
2023/05/18 14:00:10;;;;;;;4.65;1.70;;;15.80;63.30;;;;;;4791381;29;20055;-67
2023/05/18 14:02:36;;;;;;;9.65;1.88;;;15.80;63.30;;;;;;4810170;29;20071;-67
2023/05/18 14:05:02;;;;;;;3.63;1.42;;;15.80;63.30;;;;;;4810349;29;20059;-67
2023/05/18 14:07:29;;;;;;;7.38;1.80;;;15.80;63.30;;;;;;4794396;29;20063;-68
2023/05/18 14:09:54;;;;;;;4.90;1.20;;;15.80;63.40;;;;;;4774344;30;20044;-67
2023/05/18 14:12:20;;;;;;;4.57;1.38;;;15.80;63.40;;;;;;4774736;30;20051;-68
2023/05/18 14:14:46;;;;;;;4.68;1.48;;;15.80;63.40;;;;;;4774012;30;20051;-67
2023/05/18 14:17:12;;;;;;;3.60;1.38;;;15.80;63.50;;;;;;4774068;30;20376;-67
2023/05/18 14:19:38;;;;;;;3.35;1.25;;;15.80;63.50;;;;;;4774467;30;20250;-67
2023/05/18 14:22:05;;;;;;;5.05;1.17;;;15.80;63.50;;;;;;4773917;30;20113;-67
2023/05/18 14:24:30;;;;;;;11.77;1.70;;;15.90;63.60;;;;;;4773955;30;20044;-68
2023/05/18 14:26:56;;;;;;;6.60;1.60;;;15.90;63.60;;;;;;4773972;30;20056;-67
2023/05/18 14:29:22;;;;;;;7.20;2.28;;;15.90;63.70;;;;;;4773591;30;20071;-66
2023/05/18 14:31:48;;;;;;;15.43;2.10;;;15.90;63.80;;;;;;4773910;30;20440;-66
2023/05/18 14:34:14;;;;;;;12.18;1.73;;;15.90;64.10;;;;;;4773202;30;20062;-66
2023/05/18 14:36:39;;;;;;;17.77;3.20;;;16.00;64.30;;;;;;4782163;30;20112;-67
2023/05/18 14:39:05;;;;;;;16.67;2.92;;;16.00;64.90;;;;;;4791810;30;20524;-66
2023/05/18 14:41:31;;;;;;;9.77;2.13;;;16.00;64.60;;;;;;4791236;29;20486;-65
2023/05/18 14:43:57;;;;;;;17.75;3.30;;;16.00;64.50;;;;;;4791458;30;20067;-65
2023/05/18 14:46:23;;;;;;;16.90;2.65;;;16.00;64.40;;;;;;4791500;30;20055;-67
2023/05/18 14:48:49;;;;;;;14.93;3.17;;;16.00;64.40;;;;;;4791422;29;20047;-65
2023/05/18 14:51:17;;;;;;;12.77;2.92;;;16.00;64.70;;;;;;4791187;30;20127;-65
2023/05/18 14:53:43;;;;;;;12.65;2.72;;;16.00;65.10;;;;;;4791218;30;20474;-67
2023/05/18 14:56:08;;;;;;;20.25;3.63;;;16.00;65.70;;;;;;4775595;30;20098;-65
2023/05/18 14:58:34;;;;;;;16.27;3.88;;;16.00;66.30;;;;;;4791650;29;20047;-65
2023/05/18 15:01:01;;;;;;;17.52;3.03;;;16.10;66.50;;;;;;4791341;29;20408;-67
2023/05/18 15:03:26;;;;;;;13.32;2.50;;;16.10;66.60;;;;;;4791201;30;20208;-65
2023/05/18 15:05:52;;;;;;;15.38;3.40;;;16.10;66.30;;;;;;4791069;30;20137;-65
2023/05/18 15:08:18;;;;;;;15.23;3.45;;;16.10;65.90;;;;;;4791174;29;20385;-65
2023/05/18 15:10:44;;;;;;;15.93;3.22;;;16.10;65.90;;;;;;4791038;29;20055;-65
2023/05/18 15:13:10;;;;;;;12.32;2.17;;;16.10;65.90;;;;;;4790754;30;20136;-65
2023/05/18 15:15:35;;;;;;;14.35;2.75;;;16.10;65.60;;;;;;4790852;30;20051;-65
2023/05/18 15:18:01;;;;;;;13.18;2.30;;;16.10;65.80;;;;;;4790793;30;20047;-65
2023/05/18 15:20:27;;;;;;;12.27;2.85;;;16.10;65.90;;;;;;4790965;29;20063;-65
2023/05/18 15:22:52;;;;;;;14.57;3.35;;;16.10;65.90;;;;;;4790709;30;20047;-65
2023/05/18 15:25:18;;;;;;;13.27;2.97;;;16.10;65.90;;;;;;4790420;29;20371;-65
2023/05/18 15:27:44;;;;;;;11.88;2.55;;;16.10;65.80;;;;;;4791169;30;20353;-65
2023/05/18 15:30:11;;;;;;;14.90;2.45;;;16.10;65.80;;;;;;4790984;30;20059;-65
2023/05/18 15:32:38;;;;;;;13.60;2.22;;;16.10;65.80;;;;;;4790879;30;20098;-65
2023/05/18 15:35:04;;;;;;;8.48;2.58;;;16.10;65.80;;;;;;4790552;30;20063;-65
2023/05/18 15:37:30;;;;;;;10.23;2.10;;;16.10;65.70;;;;;;4790763;30;20065;-65
2023/05/18 15:39:56;;;;;;;17.98;2.85;;;16.20;65.80;;;;;;4791182;30;20059;-65
2023/05/18 15:42:21;;;;;;;10.63;2.30;;;16.10;65.60;;;;;;4774323;30;20074;-66
2023/05/18 15:44:47;;;;;;;7.50;1.95;;;16.20;65.60;;;;;;4790467;29;20058;-67
2023/05/18 15:47:13;;;;;;;11.95;2.63;;;16.20;65.30;;;;;;4788490;30;20380;-67
2023/05/18 15:49:38;;;;;;;13.60;2.45;;;16.20;65.20;;;;;;4790239;29;20047;-66
2023/05/18 15:52:05;;;;;;;15.30;2.60;;;16.20;65.20;;;;;;4790631;29;20055;-67
2023/05/18 15:54:30;;;;;;;13.82;3.22;;;16.20;65.20;;;;;;4790292;29;20047;-68
2023/05/18 15:56:56;;;;;;;10.32;2.58;;;16.20;65.40;;;;;;4790216;30;20408;-67
2023/05/18 15:59:22;;;;;;;13.95;2.58;;;16.20;65.40;;;;;;4789668;29;20059;-67
2023/05/18 16:01:48;;;;;;;22.55;3.10;;;16.30;65.50;;;;;;4789630;29;20074;-68
2023/05/18 16:04:17;;;;;;;12.93;2.95;;;16.30;65.50;;;;;;4789598;29;20059;-67
2023/05/18 16:06:43;;;;;;;26.13;6.38;;;16.30;65.70;;;;;;4785784;30;20052;-68
2023/05/18 16:09:08;;;;;;;15.88;4.03;;;16.30;65.60;;;;;;4783732;30;20138;-67
2023/05/18 16:11:34;;;;;;;14.32;2.92;;;16.40;65.40;;;;;;4799753;29;20126;-66
2023/05/18 16:14:01;;;;;;;10.88;3.13;;;16.40;65.40;;;;;;4790284;30;20051;-67
2023/05/18 16:16:27;;;;;;;15.98;3.45;;;16.40;65.30;;;;;;4790188;30;20055;-66
2023/05/18 16:18:56;;;;;;;13.63;2.95;;;16.40;65.10;;;;;;4790204;30;20047;-67
2023/05/18 16:21:22;;;;;;;18.02;3.25;;;16.50;63.70;;;;;;4790499;30;20234;-67
2023/05/18 16:23:48;;;;;;;20.38;3.45;;;16.50;63.70;;;;;;4789056;29;20551;-67
2023/05/18 16:26:14;;;;;;;23.33;4.97;;;16.50;63.60;;;;;;4789782;30;20126;-67
2023/05/18 16:28:40;;;;;;;21.80;4.03;;;16.60;63.60;;;;;;4789650;30;20063;-67
2023/05/18 16:31:10;;;;;;;19.58;3.30;;;16.60;63.20;;;;;;4789528;30;20047;-67
2023/05/18 16:33:37;;;;;;;17.17;4.05;;;16.70;63.00;;;;;;4789127;30;20058;-67
2023/05/18 16:36:03;;;;;;;35.58;5.30;;;16.70;63.10;;;;;;4789636;29;20057;-68
2023/05/18 16:38:30;;;;;;;25.05;3.53;;;16.70;63.00;;;;;;4789582;30;20055;-67
2023/05/18 16:40:56;;;;;;;25.52;3.25;;;16.70;62.50;;;;;;4789198;30;20063;-68
2023/05/18 16:43:22;;;;;;;18.83;3.30;;;16.80;62.20;;;;;;4789724;30;20054;-67
2023/05/18 16:45:48;;;;;;;18.77;3.67;;;16.80;62.30;;;;;;4788385;30;20051;-67
2023/05/18 16:48:13;;;;;;;16.30;3.25;;;16.80;62.10;;;;;;4789447;30;20047;-64
2023/05/18 16:50:39;;;;;;;22.23;3.40;;;16.80;62.20;;;;;;4773736;30;20051;-64
2023/05/18 16:53:05;;;;;;;24.45;3.80;;;16.80;62.20;;;;;;4788183;30;20090;-64
2023/05/18 16:55:31;;;;;;;26.08;4.60;;;16.80;62.40;;;;;;4789254;29;20062;-64
2023/05/18 16:57:56;;;;;;;24.73;3.47;;;16.70;62.40;;;;;;4793134;30;20051;-65
2023/05/18 17:00:22;;;;;;;14.32;3.30;;;16.70;62.60;;;;;;4793412;30;20055;-64
2023/05/18 17:02:48;;;;;;;20.45;3.33;;;16.70;62.80;;;;;;4793226;30;20055;-64
2023/05/18 17:05:15;;;;;;;15.38;2.92;;;16.70;63.00;;;;;;4793758;29;20456;-64
2023/05/18 17:07:41;;;;;;;17.83;3.47;;;16.70;63.20;;;;;;4793684;29;20345;-64
2023/05/18 17:10:08;;;;;;;17.60;3.88;;;16.70;63.40;;;;;;4793424;30;20075;-64
2023/05/18 17:12:35;;;;;;;17.52;3.63;;;16.70;63.60;;;;;;4787743;30;20088;-67
2023/05/18 17:15:01;;;;;;;28.25;4.25;;;16.70;63.70;;;;;;4792868;30;20126;-67
2023/05/18 17:17:27;;;;;;;32.78;4.28;;;16.70;64.00;;;;;;4792723;29;20503;-67
2023/05/18 17:19:53;;;;;;;26.65;4.53;;;16.70;64.20;;;;;;4806909;29;20047;-67
2023/05/18 17:22:19;;;;;;;27.38;4.60;;;16.70;64.40;;;;;;4793453;30;20069;-67
2023/05/18 17:24:45;;;;;;;19.65;4.15;;;16.70;64.60;;;;;;4792192;30;20432;-67